Flight Track Log - Related Links

Times and Time Zones

All times are in EDT time to prevent confusion due to time zone crossing. See the RPA4907 flight status page for this flight to view local times or setup timezone preferences in your user account.

Time Position Orientation Groundspeed Altitude Reporting Facility
EDT Latitude Longitude Course Direction KTS MPH feet Rate Location/Type
Sat 01:31:33 PM 39.1500 -76.6333 49° Northeast 186 214 1,800  Level Potomac TRACON
Sat 01:32:33 PM 39.1667 -76.5500 76° East 205 236 4,400 2,381 Climbing Potomac TRACON
Sat 01:33:39 PM 39.1667 -76.4667 90° East 225 259 6,800 2,238 Climbing Potomac TRACON
Sat 01:34:39 PM 39.1667 -76.3833 90° East 244 281 9,100 2,000 Climbing Potomac TRACON
Sat 01:35:33 PM 39.1667 -76.3000 90° East 265 305 10,600 1,000 Climbing Potomac TRACON
Sat 01:36:33 PM 39.2333 -76.2333 38° Northeast 309 356 11,000 118 Climbing Potomac TRACON
Sat 01:37:00 PM 39.9859 -74.7795 49° Northeast  Level FlightAware Approximate
Sat 01:38:56 PM 39.3833 -76.0333 46° Northeast 322 371 11,000  Level Philadelphia TRACON
Sat 01:39:56 PM 39.4333 -75.9333 57° Northeast 320 368 11,000  Level Philadelphia TRACON
Sat 01:40:56 PM 39.4667 -75.8333 67° East 319 367 11,000  Level Philadelphia TRACON
Sat 01:42:02 PM 39.5167 -75.7333 57° Northeast 318 366 11,000  Level Philadelphia TRACON
Sat 01:43:02 PM 39.5667 -75.6333 57° Northeast 318 366 11,000 -136 Level Philadelphia TRACON
Sat 01:44:14 PM 39.6167 -75.5167 61° Northeast 319 367 10,700 -455 Descending Philadelphia TRACON
Sat 01:45:14 PM 39.6667 -75.4000 61° Northeast 325 374 10,000 -368 Descending Philadelphia TRACON
Sat 01:46:08 PM 39.7000 -75.3167 63° Northeast 316 364 10,000  Level Philadelphia TRACON
Sat 01:47:08 PM 39.7500 -75.2333 52° Northeast 305 351 10,000  Level Philadelphia TRACON
Sat 01:48:09 PM 39.8000 -75.1333 57° Northeast 296 341 10,000 -313 Level Philadelphia TRACON
Sat 01:49:03 PM 39.8333 -75.0500 62° Northeast 285 328 9,400 -857 Descending Philadelphia TRACON
Sat 01:50:08 PM 39.8833 -74.9667 52° Northeast 272 313 8,300 -700 Descending Philadelphia TRACON
Sat 01:51:03 PM 39.9333 -74.9000 46° Northeast 278 320 8,000 -385 Descending Philadelphia TRACON
Sat 01:51:57 PM 39.9667 -74.8333 57° Northeast 274 315 7,600 -522 Descending Philadelphia TRACON
Sat 01:52:58 PM 40.0167 -74.7500 52° Northeast 267 307 7,000 -298 Descending New York TRACON
Sat 01:53:58 PM 40.0667 -74.6833 46° Northeast 265 305 7,000  Level New York TRACON
Sat 01:54:58 PM 40.1333 -74.6167 37° Northeast 260 299 7,000  Level New York TRACON
Sat 01:55:58 PM 40.2000 -74.6000 11° North 266 306 7,000 -347 Level New York TRACON
Sat 01:56:59 PM 40.2667 -74.6000 360° North 261 300 6,300 -450 Descending New York TRACON
Sat 01:57:58 PM 40.3333 -74.5833 11° North 251 289 6,100 -151 Descending New York TRACON
Sat 01:58:58 PM 40.4167 -74.5667 North 259 298 6,000 -50 Descending New York TRACON
Sat 01:59:58 PM 40.4833 -74.5667 360° North 260 299 6,000  Level New York TRACON
Sat 02:00:58 PM 40.5500 -74.5500 11° North 260 299 6,000  Level New York TRACON
Sat 02:01:58 PM 40.6167 -74.5500 360° North 261 300 6,000  Level New York TRACON
Sat 02:02:58 PM 40.7000 -74.5333 North 259 298 6,000  Level New York TRACON
Sat 02:03:58 PM 40.7667 -74.5333 360° North 257 296 6,000  Level New York TRACON
Sat 02:04:58 PM 40.8333 -74.5167 11° North 256 295 6,000 -250 Level New York TRACON
Sat 02:05:58 PM 40.9000 -74.4667 30° Northeast 265 305 5,500 -500 Descending New York TRACON
Sat 02:06:58 PM 40.9167 -74.3833 75° East 226 260 5,000 -300 Descending New York TRACON
Sat 02:07:58 PM 40.9333 -74.3167 72° East 225 259 4,900 -400 Descending New York TRACON
Sat 02:08:58 PM 40.9167 -74.2333 105° East 224 258 4,200 -450 Descending New York TRACON
Sat 02:09:58 PM 40.9000 -74.1667 108° East 224 258 4,000 -200 Descending New York TRACON
Sat 02:10:58 PM 40.8667 -74.0833 118° Southeast 226 260 3,800 -850 Descending New York TRACON
Sat 02:11:58 PM 40.8000 -74.1000 191° South 210 242 2,300 -1,200 Descending New York TRACON
Sat 02:12:58 PM 40.7667 -74.1167 201° Southwest 175 201 1,400 -850 Descending New York TRACON
Sat 02:13:58 PM 40.7167 -74.1500 207° Southwest 137 158 600 -800 Descending New York TRACON
Sat 02:15:00 PM 40.6925 -74.1687 159° South  Level Estimated

Login

Don't have an account? Register now (free) for customized features, flight alerts, and more!